createdAt,value
2018-10-02T00:02:18.754Z,9.50
2018-10-02T00:04:47.367Z,9.60
2018-10-02T00:07:16.076Z,9.60
2018-10-02T00:09:44.813Z,9.50
2018-10-02T00:12:19.046Z,9.50
2018-10-02T00:17:41.973Z,9.50
2018-10-02T00:20:10.384Z,9.50
2018-10-02T00:22:38.994Z,9.60
2018-10-02T00:25:09.324Z,9.60
2018-10-02T00:27:38.431Z,9.60
2018-10-02T00:30:07.139Z,9.60
2018-10-02T00:32:35.683Z,9.60
2018-10-02T00:35:04.426Z,9.70
2018-10-02T00:37:34.020Z,9.70
2018-10-02T00:42:56.504Z,9.70
2018-10-02T00:45:47.439Z,9.80
2018-10-02T00:48:16.552Z,9.80
2018-10-02T00:50:45.079Z,9.80
2018-10-02T00:53:29.735Z,9.80
2018-10-02T00:55:59.255Z,9.80
2018-10-02T01:01:21.573Z,9.80
2018-10-02T01:03:49.974Z,9.80
2018-10-02T01:12:05.310Z,9.80
2018-10-02T01:14:33.798Z,9.80
2018-10-02T01:19:56.135Z,9.80
2018-10-02T01:25:18.436Z,9.80
2018-10-02T01:27:47.053Z,9.80
2018-10-02T01:33:12.823Z,9.80
2018-10-02T01:35:41.136Z,9.80
2018-10-02T01:38:09.840Z,9.90
2018-10-02T01:40:38.447Z,9.90
2018-10-02T01:43:07.446Z,9.90
2018-10-02T01:45:35.795Z,9.90
2018-10-02T01:48:04.426Z,10.00
2018-10-02T01:50:33.072Z,10.00
2018-10-02T01:53:01.641Z,10.00
2018-10-02T01:55:30.536Z,10.00
2018-10-02T01:58:15.107Z,10.00
2018-10-02T02:00:56.830Z,10.00
2018-10-02T02:03:28.443Z,10.00
2018-10-02T02:05:57.076Z,10.00
2018-10-02T02:08:26.747Z,9.90
2018-10-02T02:13:49.091Z,10.00
2018-10-02T02:16:17.801Z,10.00
2018-10-02T02:18:46.571Z,10.00
2018-10-02T02:21:14.902Z,10.00
2018-10-02T02:26:37.447Z,10.00
2018-10-02T02:29:06.077Z,10.10
2018-10-02T02:31:34.679Z,10.10
2018-10-02T02:34:17.333Z,10.10
2018-10-02T02:36:45.843Z,10.10
2018-10-02T02:42:08.258Z,10.00
2018-10-02T02:44:36.841Z,10.10
2018-10-02T02:47:10.924Z,10.10
2018-10-02T02:55:27.684Z,10.10
2018-10-02T02:57:56.012Z,10.10
2018-10-02T03:00:25.139Z,10.00
2018-10-02T03:02:53.437Z,10.00
2018-10-02T03:05:22.543Z,10.10
2018-10-02T03:07:51.828Z,10.00
2018-10-02T03:10:21.353Z,10.00
2018-10-02T03:12:50.071Z,10.10
2018-10-02T03:15:18.729Z,10.00
2018-10-02T03:17:47.478Z,10.10
2018-10-02T03:20:16.416Z,10.00
2018-10-02T03:22:45.132Z,10.10
2018-10-02T03:25:13.720Z,10.10
2018-10-02T03:27:42.368Z,10.10
2018-10-02T03:30:10.972Z,10.10
2018-10-02T03:32:39.620Z,10.10
2018-10-02T03:38:01.657Z,10.10
2018-10-02T03:40:30.762Z,10.10
2018-10-02T03:48:46.913Z,10.20
2018-10-02T03:51:15.609Z,10.20
2018-10-02T03:53:44.389Z,10.20
2018-10-02T03:56:13.021Z,10.20
2018-10-02T03:58:42.109Z,10.20
2018-10-02T04:01:10.426Z,10.20
2018-10-02T04:03:39.056Z,10.30
2018-10-02T04:06:27.912Z,10.40
2018-10-02T04:08:56.260Z,10.40
2018-10-02T04:11:31.489Z,10.50
2018-10-02T04:14:00.627Z,10.60
2018-10-02T04:16:51.476Z,10.60
2018-10-02T04:19:33.883Z,10.70
2018-10-02T04:24:56.205Z,10.90
2018-10-02T04:27:25.012Z,10.90
2018-10-02T04:29:53.737Z,11.00
2018-10-02T04:32:22.479Z,11.00
2018-10-02T04:34:54.275Z,11.00
2018-10-02T04:37:23.258Z,11.10
2018-10-02T04:42:45.016Z,11.10
2018-10-02T04:45:13.525Z,11.10
2018-10-02T04:47:42.156Z,11.10
2018-10-02T04:50:10.908Z,11.20
2018-10-02T04:52:39.784Z,11.20
2018-10-02T04:55:08.513Z,11.20
2018-10-02T04:57:37.191Z,11.20
2018-10-02T05:00:06.145Z,11.20
2018-10-02T05:02:34.575Z,11.20
2018-10-02T05:05:03.312Z,11.20
2018-10-02T05:07:32.286Z,11.20
2018-10-02T05:10:00.606Z,11.20
2018-10-02T05:12:29.444Z,11.20
2018-10-02T05:17:58.412Z,11.20
2018-10-02T05:20:27.161Z,11.10
2018-10-02T05:23:10.056Z,11.10
2018-10-02T05:25:38.503Z,11.10
2018-10-02T05:28:07.128Z,11.10
2018-10-02T05:30:39.022Z,11.10
2018-10-02T05:33:13.860Z,11.20
2018-10-02T05:35:43.003Z,11.20
2018-10-02T05:38:17.240Z,11.20
2018-10-02T05:40:45.766Z,11.20
2018-10-02T05:43:14.497Z,11.20
2018-10-02T05:45:43.213Z,11.20
2018-10-02T05:48:12.455Z,11.30
2018-10-02T05:50:40.811Z,11.30
2018-10-02T05:53:09.249Z,11.30
2018-10-02T05:55:37.920Z,11.30
2018-10-02T05:58:06.578Z,11.30
2018-10-02T06:00:47.253Z,11.30
2018-10-02T06:03:16.065Z,11.30
2018-10-02T06:05:44.360Z,11.30
2018-10-02T06:08:13.054Z,11.30
2018-10-02T06:13:35.401Z,11.30
2018-10-02T06:16:04.003Z,11.30
2018-10-02T06:18:32.871Z,11.30
2018-10-02T06:21:01.564Z,11.30
2018-10-02T06:23:30.389Z,11.30
2018-10-02T06:25:58.907Z,11.40
2018-10-02T06:28:27.808Z,11.40
2018-10-02T06:33:48.303Z,11.50
2018-10-02T06:39:10.733Z,11.60
2018-10-02T06:41:39.244Z,11.60
2018-10-02T06:44:08.078Z,11.70
2018-10-02T06:46:55.614Z,11.70
2018-10-02T06:49:24.038Z,11.80
2018-10-02T06:51:52.896Z,11.90
2018-10-02T06:54:21.560Z,11.90
2018-10-02T06:57:02.220Z,11.90
2018-10-02T06:59:30.751Z,12.00
2018-10-02T07:04:54.549Z,12.00
2018-10-02T07:07:23.769Z,12.10
2018-10-02T07:09:52.909Z,12.10
2018-10-02T07:12:21.232Z,12.20
2018-10-02T07:14:50.082Z,12.20
2018-10-02T07:17:18.909Z,12.30
2018-10-02T07:25:34.317Z,12.40
2018-10-02T07:28:02.961Z,12.40
2018-10-02T07:30:54.232Z,12.50
2018-10-02T07:33:22.854Z,12.50
2018-10-02T07:35:57.222Z,12.50
2018-10-02T07:38:26.139Z,12.50
2018-10-02T07:40:54.984Z,12.50
2018-10-02T07:43:23.746Z,12.60
2018-10-02T07:45:52.472Z,12.60
2018-10-02T07:48:21.291Z,12.60
2018-10-02T07:50:49.876Z,12.60
2018-10-02T07:53:18.652Z,12.70
2018-10-02T07:55:47.291Z,12.70
2018-10-02T07:58:16.313Z,12.70
2018-10-02T08:00:44.738Z,12.70
2018-10-02T08:03:13.389Z,12.80
2018-10-02T08:05:42.071Z,12.80
2018-10-02T08:08:10.897Z,12.90
2018-10-02T08:10:39.553Z,12.90
2018-10-02T08:13:07.811Z,12.90
2018-10-02T08:15:36.626Z,12.90
2018-10-02T08:18:05.959Z,12.90
2018-10-02T08:20:34.788Z,13.00
2018-10-02T08:23:03.505Z,13.00
2018-10-02T08:25:32.024Z,13.00
2018-10-02T08:28:00.493Z,13.10
2018-10-02T08:30:29.159Z,13.10
2018-10-02T08:32:57.945Z,13.20
2018-10-02T08:35:26.943Z,13.20
2018-10-02T08:37:56.072Z,13.30
2018-10-02T08:40:24.707Z,13.30
2018-10-02T08:42:53.333Z,13.40
2018-10-02T08:48:15.588Z,13.50
2018-10-02T08:50:44.291Z,13.60
2018-10-02T08:53:12.999Z,13.60
2018-10-02T08:55:41.922Z,13.70
2018-10-02T08:58:10.740Z,13.70
2018-10-02T09:00:39.458Z,13.80
2018-10-02T09:03:08.408Z,13.80
2018-10-02T09:05:37.120Z,13.90
2018-10-02T09:08:05.786Z,13.90
2018-10-02T09:13:27.891Z,13.90
2018-10-02T09:16:03.033Z,14.00
2018-10-02T09:21:25.946Z,14.10
2018-10-02T09:26:47.885Z,14.30
2018-10-02T09:29:16.520Z,14.30
2018-10-02T09:31:50.532Z,14.40
2018-10-02T09:34:24.364Z,14.50
2018-10-02T09:36:59.152Z,14.70
2018-10-02T09:39:33.702Z,14.80
2018-10-02T09:42:08.424Z,14.80
2018-10-02T09:44:59.108Z,14.80
2018-10-02T09:47:27.429Z,15.00
2018-10-02T09:49:56.209Z,15.00
2018-10-02T09:52:24.872Z,15.10
2018-10-02T09:54:53.501Z,15.10
2018-10-02T09:57:22.304Z,15.10
2018-10-02T09:59:52.284Z,15.10
2018-10-02T10:02:26.128Z,15.20
2018-10-02T10:05:03.716Z,15.20
2018-10-02T10:07:31.961Z,15.30
2018-10-02T10:10:00.523Z,15.30
2018-10-02T10:12:29.142Z,15.40
2018-10-02T10:14:57.844Z,15.50
2018-10-02T10:17:26.852Z,15.50
2018-10-02T10:19:55.173Z,15.50
2018-10-02T10:22:23.922Z,15.60
2018-10-02T10:24:52.550Z,15.60
2018-10-02T10:30:13.965Z,15.70
2018-10-02T10:32:42.557Z,15.70
2018-10-02T10:35:11.252Z,15.70
2018-10-02T10:37:40.125Z,15.90
2018-10-02T10:40:08.533Z,16.20
2018-10-02T10:42:37.229Z,16.40
2018-10-02T10:45:06.160Z,16.40
2018-10-02T10:47:35.112Z,16.40
2018-10-02T10:50:03.423Z,16.30
2018-10-02T10:52:32.181Z,16.20
2018-10-02T10:55:28.897Z,16.10
2018-10-02T10:57:57.718Z,16.10
2018-10-02T11:00:26.449Z,16.10
2018-10-02T11:02:55.127Z,16.10
2018-10-02T11:05:23.796Z,16.10
2018-10-02T11:07:53.525Z,16.10
2018-10-02T11:10:38.188Z,16.10
2018-10-02T11:13:06.973Z,16.10
2018-10-02T11:15:35.617Z,16.50
2018-10-02T11:20:58.004Z,16.50
2018-10-02T11:26:26.758Z,16.50
2018-10-02T11:29:02.461Z,16.40
2018-10-02T11:31:31.776Z,16.50
2018-10-02T11:34:00.633Z,16.40
2018-10-02T11:36:29.115Z,16.30
2018-10-02T11:38:57.844Z,16.40
2018-10-02T11:41:26.492Z,16.40
2018-10-02T11:43:55.506Z,16.40
2018-10-02T11:46:25.845Z,16.50
2018-10-02T11:48:54.184Z,16.50
2018-10-02T11:51:22.784Z,16.50
2018-10-02T11:53:51.420Z,16.40
2018-10-02T11:56:20.259Z,16.60
2018-10-02T11:58:48.823Z,16.70
2018-10-02T12:01:17.511Z,17.00
2018-10-02T12:04:01.422Z,17.20
2018-10-02T12:06:29.754Z,17.30
2018-10-02T12:08:58.493Z,17.00
2018-10-02T12:11:27.137Z,16.80
2018-10-02T12:13:57.298Z,16.80
2018-10-02T12:16:25.576Z,16.70
2018-10-02T12:18:59.608Z,16.70
2018-10-02T12:21:28.921Z,16.70
2018-10-02T12:24:03.372Z,17.10
2018-10-02T12:26:43.849Z,17.60
2018-10-02T12:29:12.528Z,17.60
2018-10-02T12:34:35.662Z,17.20
2018-10-02T12:42:51.830Z,17.50
2018-10-02T12:45:20.504Z,17.40
2018-10-02T12:47:49.264Z,17.20
2018-10-02T12:50:17.925Z,17.00
2018-10-02T12:55:56.637Z,16.80
2018-10-02T12:58:25.171Z,17.30
2018-10-02T13:00:53.986Z,17.30
2018-10-02T13:03:22.799Z,17.30
2018-10-02T13:05:51.510Z,17.80
2018-10-02T13:08:20.469Z,17.70
2018-10-02T13:13:45.556Z,17.80
2018-10-02T13:16:14.334Z,17.60
2018-10-02T13:18:42.874Z,17.80
2018-10-02T13:21:11.597Z,17.80
2018-10-02T13:23:40.365Z,17.40
2018-10-02T13:26:10.172Z,17.70
2018-10-02T13:28:39.125Z,17.60
2018-10-02T13:31:07.718Z,17.30
2018-10-02T13:33:36.327Z,17.20
2018-10-02T13:36:04.936Z,17.30
2018-10-02T13:41:31.569Z,17.30
2018-10-02T13:44:12.919Z,17.20
2018-10-02T13:46:42.568Z,17.10
2018-10-02T13:49:12.235Z,16.90
2018-10-02T13:51:40.949Z,16.90
2018-10-02T13:54:10.950Z,16.90
2018-10-02T13:56:40.417Z,16.80
2018-10-02T14:02:03.085Z,16.50
2018-10-02T14:10:20.192Z,16.80
2018-10-02T14:12:54.925Z,16.90
2018-10-02T14:21:10.281Z,16.90
2018-10-02T14:23:42.014Z,16.90
2018-10-02T14:29:04.431Z,17.30
2018-10-02T14:31:36.077Z,17.30
2018-10-02T14:36:57.265Z,16.90
2018-10-02T14:39:27.061Z,17.00
2018-10-02T14:44:49.057Z,16.80
2018-10-02T14:47:17.744Z,16.50
2018-10-02T14:52:40.989Z,16.60
2018-10-02T14:58:10.872Z,16.80
2018-10-02T15:03:34.935Z,16.70
2018-10-02T15:06:04.702Z,17.00
2018-10-02T15:08:35.156Z,16.80
2018-10-02T15:11:05.426Z,16.40
2018-10-02T15:13:33.734Z,16.20
2018-10-02T15:18:55.943Z,15.80
2018-10-02T15:21:24.559Z,15.70
2018-10-02T15:26:47.525Z,15.50
2018-10-02T15:29:19.461Z,15.60
2018-10-02T15:37:34.855Z,16.20
2018-10-02T15:42:58.084Z,16.10
2018-10-02T15:48:26.667Z,16.30
2018-10-02T15:50:55.897Z,16.30
2018-10-02T15:53:24.481Z,16.10
2018-10-02T15:55:57.653Z,15.90
2018-10-02T15:58:26.818Z,15.80
2018-10-02T16:00:57.784Z,15.90
2018-10-02T16:03:35.743Z,15.60
2018-10-02T16:06:14.241Z,15.50
2018-10-02T16:09:18.945Z,15.50
2018-10-02T16:14:44.011Z,15.30
2018-10-02T16:23:10.800Z,15.10
2018-10-02T16:31:29.252Z,14.70
2018-10-02T16:33:59.260Z,14.60
2018-10-02T16:36:27.980Z,14.40
2018-10-02T16:38:56.440Z,14.20
2018-10-02T16:41:25.384Z,14.10
2018-10-02T16:43:53.813Z,14.00
2018-10-02T16:46:23.561Z,13.90
2018-10-02T16:54:20.491Z,13.70
2018-10-02T16:56:49.114Z,13.60
2018-10-02T16:59:17.740Z,13.50
2018-10-02T17:01:49.538Z,13.40
2018-10-02T17:04:18.297Z,13.30
2018-10-02T17:06:47.340Z,13.30
2018-10-02T17:09:16.223Z,13.30
2018-10-02T17:11:47.740Z,13.20
2018-10-02T17:14:22.996Z,13.10
2018-10-02T17:16:54.124Z,13.00
2018-10-02T17:22:32.332Z,13.00
2018-10-02T17:25:00.620Z,12.90
2018-10-02T17:27:29.104Z,12.80
2018-10-02T17:29:57.727Z,12.80
2018-10-02T17:32:26.524Z,12.70
2018-10-02T17:35:07.184Z,12.70
2018-10-02T17:37:38.824Z,12.70
2018-10-02T17:40:07.489Z,12.70
2018-10-02T17:42:36.012Z,12.70
2018-10-02T17:45:09.954Z,12.70
2018-10-02T17:47:39.173Z,12.70
2018-10-02T17:50:08.805Z,12.70
2018-10-02T17:52:38.632Z,12.70
2018-10-02T17:55:10.195Z,12.70
2018-10-02T17:57:38.815Z,12.70
2018-10-02T18:00:07.477Z,12.70
2018-10-02T18:02:36.100Z,12.80
2018-10-02T18:05:04.625Z,12.80
2018-10-02T18:07:33.308Z,12.80
2018-10-02T18:10:01.957Z,12.80
2018-10-02T18:12:32.209Z,12.90
2018-10-02T18:15:06.040Z,12.90
2018-10-02T18:23:25.583Z,12.80
2018-10-02T18:31:40.978Z,12.90
2018-10-02T18:34:09.596Z,12.90
2018-10-02T18:42:25.932Z,12.90
2018-10-02T18:50:40.742Z,12.90
2018-10-02T18:53:11.516Z,12.90
2018-10-02T18:58:34.306Z,12.90
2018-10-02T19:01:03.444Z,12.80
2018-10-02T19:03:32.075Z,12.80
2018-10-02T19:06:01.180Z,12.80
2018-10-02T19:08:40.536Z,12.90
2018-10-02T19:24:11.681Z,12.90
2018-10-02T19:26:40.385Z,12.80
2018-10-02T19:35:08.171Z,12.50
2018-10-02T19:37:42.373Z,12.50
2018-10-02T19:40:12.915Z,12.50
2018-10-02T19:42:41.417Z,12.50
2018-10-02T19:47:50.478Z,12.40
2018-10-02T19:50:20.048Z,12.40
2018-10-02T19:52:55.320Z,12.30
2018-10-02T20:08:47.233Z,12.20
2018-10-02T20:11:17.037Z,12.10
2018-10-02T20:16:39.126Z,12.00
2018-10-02T20:19:19.653Z,12.00
2018-10-02T20:22:08.985Z,12.00
2018-10-02T20:30:12.597Z,11.90
2018-10-02T20:32:46.205Z,11.80
2018-10-02T20:49:21.041Z,11.70
2018-10-02T20:51:49.719Z,11.70
2018-10-02T20:54:23.743Z,11.70
2018-10-02T20:56:58.556Z,11.70
2018-10-02T20:59:28.372Z,11.80
2018-10-02T21:01:57.589Z,11.80
2018-10-02T21:04:26.042Z,11.80
2018-10-02T21:06:55.745Z,11.80
2018-10-02T21:09:27.678Z,11.90
2018-10-02T21:12:09.559Z,11.90
2018-10-02T21:14:43.433Z,11.90
2018-10-02T21:17:12.602Z,11.90
2018-10-02T21:19:47.685Z,11.90
2018-10-02T21:22:16.816Z,12.00
2018-10-02T21:24:45.480Z,12.00
2018-10-02T21:27:14.218Z,12.00
2018-10-02T21:29:45.803Z,12.10
2018-10-02T21:32:14.268Z,12.10
2018-10-02T21:34:42.953Z,12.10
2018-10-02T21:40:10.568Z,12.20
2018-10-02T21:45:48.243Z,12.30
2018-10-02T21:51:10.357Z,12.30
2018-10-02T21:53:39.157Z,12.40
2018-10-02T21:56:17.228Z,12.40
2018-10-02T22:03:53.689Z,12.40
2018-10-02T22:06:36.809Z,12.50
2018-10-02T22:23:55.198Z,12.70
2018-10-02T22:26:23.417Z,12.80
2018-10-02T22:45:44.657Z,12.70
2018-10-02T22:51:28.708Z,12.80
2018-10-02T22:54:10.562Z,12.80
2018-10-02T23:05:19.058Z,12.70
2018-10-02T23:10:57.896Z,12.70
2018-10-02T23:13:26.006Z,12.70
2018-10-02T23:27:43.217Z,12.70
2018-10-02T23:30:14.664Z,12.70
2018-10-02T23:35:47.301Z,12.80
2018-10-02T23:41:09.705Z,12.70
2018-10-02T23:43:38.312Z,12.70
2018-10-02T23:46:07.491Z,12.60
2018-10-02T23:57:16.766Z,12.80
2018-10-02T23:59:52.053Z,12.70
